Lauderhill, FL (33313)

7:24 PM EDT on August 26, 2016 (GMT -0400)
Marcano Estates | | Change Station

Elev 7 ft 26.14 °N, 80.25 °W | Updated 26 seconds ago

Scattered Clouds
Scattered Clouds
85.5 °F
Feels Like 97 °F
N
4.9
Wind Variable Wind from ENE
Gusts 9.0 mph

Today
High -- | Low -- °F
--% Chance of Precip.
Yesterday
High -- | Low -- °F
Precip. -- in
Pressure 29.90 in
Visibility 10.0 miles
Clouds Scattered Clouds 3000 ft
Heat Index 97 °F
Dew Point 77 °F
Humidity 77%
Rainfall 0.25 in
Snow Depth Not available.
6:58 AM 7:46 PM
Waning Crescent, 30% visible
METAR KFXE 262253Z 05010KT 10SM SCT030 30/23 A2989 RMK AO2 SLP125 T03000228
Pressure 29.90 in
Visibility 10.0 miles
Clouds Scattered Clouds 3000 ft
Heat Index 97 °F
Dew Point 77 °F
Humidity 77%
Rainfall 0.25 in
Snow Depth Not available.
6:58 AM 7:46 PM
Waning Crescent, 30% visible
METAR KFXE 262253Z 05010KT 10SM SCT030 30/23 A2989 RMK AO2 SLP125 T03000228

10-Day Weather Forecast

Almanac

Astronomy

Aug. 26, 2016 Rise Set
Actual Time
Civil Twilight
Nautical Twilight
Astronomical Twilight
Moon
Length of Visible Light
Length of Day
Tomorrow will be .
, % of the Moon is Illuminated

Today's Extremes

State Highs State Lows

Community

WunderPhotos

Upload Photos

1,935,254 photos uploaded!

WunderBlog® & News

Nearby

Air Quality

  Air Quality AQ Index Pollutant
Not available.

Snow Depth

Station Depth Elevation

Earthquake Activity

City Distance Mag. Time & Date
Minimum magnitude displayed is 2.5.

Coastal Water Temperatures

Place Temperature

Stations

Nearby Weather Stations

Station Location Temp. Windchill Dew Point Humidity Wind Precip. Elev Updated Type
                   

Watches & Warnings

There are currently no watches in effect.